createdAt,value
2023-09-21T00:01:35.093Z,100163.59
2023-09-21T00:04:38.275Z,100164.00
2023-09-21T00:07:40.762Z,100162.19
2023-09-21T00:10:43.221Z,100151.34
2023-09-21T00:13:45.812Z,100157.72
2023-09-21T00:16:49.390Z,100161.66
2023-09-21T00:19:51.873Z,100162.34
2023-09-21T00:22:54.523Z,100161.69
2023-09-21T00:25:59.927Z,100158.91
2023-09-21T00:29:05.147Z,100161.59
2023-09-21T00:32:07.846Z,100154.34
2023-09-21T00:35:12.432Z,100155.47
2023-09-21T00:38:15.557Z,100147.88
2023-09-21T00:41:19.472Z,100156.94
2023-09-21T00:44:23.500Z,100157.16
2023-09-21T00:47:26.065Z,100154.88
2023-09-21T00:50:28.664Z,100155.25
2023-09-21T00:53:33.109Z,100157.47
2023-09-21T00:56:36.320Z,100148.00
2023-09-21T00:59:40.645Z,100144.16
2023-09-21T01:02:44.536Z,100144.88
2023-09-21T01:05:50.179Z,100142.97
2023-09-21T01:08:53.469Z,100138.31
2023-09-21T01:12:00.868Z,100140.88
2023-09-21T01:15:11.777Z,100133.88
2023-09-21T01:18:17.991Z,100123.56
2023-09-21T01:21:27.597Z,100128.59
2023-09-21T01:24:30.073Z,100125.00
2023-09-21T01:27:35.448Z,100128.75
2023-09-21T01:30:42.331Z,100129.72
2023-09-21T01:33:45.436Z,100127.50
2023-09-21T01:36:48.074Z,100125.75
2023-09-21T01:39:50.637Z,100123.91
2023-09-21T01:42:53.423Z,100125.28
2023-09-21T01:45:56.097Z,100121.91
2023-09-21T01:48:58.688Z,100112.53
2023-09-21T01:52:01.278Z,100111.63
2023-09-21T01:55:06.661Z,100113.63
2023-09-21T01:58:12.992Z,100106.97
2023-09-21T02:01:18.971Z,100111.94
2023-09-21T02:04:21.714Z,100115.06
2023-09-21T02:07:24.235Z,100114.38
2023-09-21T02:10:27.073Z,100114.50
2023-09-21T02:13:29.950Z,100110.38
2023-09-21T02:16:32.625Z,100106.66
2023-09-21T02:19:38.774Z,100100.56
2023-09-21T02:22:46.536Z,100098.72
2023-09-21T02:25:49.859Z,100092.28
2023-09-21T02:28:54.271Z,100092.97
2023-09-21T02:31:57.776Z,100088.78
2023-09-21T02:35:01.462Z,100092.66
2023-09-21T02:38:04.566Z,100081.53
2023-09-21T02:41:07.149Z,100086.81
2023-09-21T02:44:09.821Z,100080.28
2023-09-21T02:47:12.320Z,100082.00
2023-09-21T02:50:16.600Z,100072.66
2023-09-21T02:53:22.368Z,100078.72
2023-09-21T02:56:25.302Z,100076.53
2023-09-21T02:59:27.937Z,100083.19
2023-09-21T03:02:31.003Z,100078.28
2023-09-21T03:05:37.545Z,100086.56
2023-09-21T03:08:40.354Z,100084.38
2023-09-21T03:11:46.607Z,100084.25
2023-09-21T03:14:50.111Z,100092.09
2023-09-21T03:17:56.596Z,100082.81
2023-09-21T03:20:59.236Z,100092.88
2023-09-21T03:24:02.817Z,100079.78
2023-09-21T03:27:05.722Z,100081.06
2023-09-21T03:30:13.354Z,100069.25
2023-09-21T03:33:17.722Z,100074.00
2023-09-21T03:36:21.685Z,100067.56
2023-09-21T03:39:27.964Z,100062.66
2023-09-21T03:42:33.876Z,100066.59
2023-09-21T03:45:36.403Z,100066.41
2023-09-21T03:48:39.114Z,100067.47
2023-09-21T03:51:42.762Z,100059.66
2023-09-21T03:54:47.995Z,100049.00
2023-09-21T03:57:51.380Z,100046.00
2023-09-21T04:00:53.844Z,100041.41
2023-09-21T04:03:56.883Z,100045.59
2023-09-21T04:06:59.550Z,100040.50
2023-09-21T04:10:02.328Z,100035.59
2023-09-21T04:13:06.737Z,100033.41
2023-09-21T04:16:09.787Z,100040.28
2023-09-21T04:19:15.700Z,100031.84
2023-09-21T04:22:18.201Z,100041.03
2023-09-21T04:25:20.772Z,100043.88
2023-09-21T04:28:23.788Z,100047.66
2023-09-21T04:31:26.418Z,100041.66
2023-09-21T04:34:29.037Z,100043.38
2023-09-21T04:37:31.652Z,100041.09
2023-09-21T04:40:34.280Z,100037.75
2023-09-21T04:43:40.774Z,100033.91
2023-09-21T04:46:44.157Z,100043.06
2023-09-21T04:49:47.050Z,100031.69
2023-09-21T04:52:50.416Z,100036.66
2023-09-21T04:55:54.671Z,100045.88
2023-09-21T04:58:57.336Z,100031.22
2023-09-21T05:02:00.152Z,100032.69
2023-09-21T05:05:03.069Z,100030.88
2023-09-21T05:08:05.828Z,100026.09
2023-09-21T05:11:08.709Z,100027.88
2023-09-21T05:14:11.364Z,100036.75
2023-09-21T05:17:13.915Z,100043.38
2023-09-21T05:20:16.767Z,100068.81
2023-09-21T05:23:19.923Z,100063.84
2023-09-21T05:26:22.474Z,100050.66
2023-09-21T05:29:25.079Z,100063.34
2023-09-21T05:32:32.596Z,100052.47
2023-09-21T05:35:36.116Z,100045.50
2023-09-21T05:38:38.825Z,100045.19
2023-09-21T05:41:42.669Z,100057.06
2023-09-21T05:44:45.731Z,100054.31
2023-09-21T05:47:48.517Z,100060.53
2023-09-21T05:50:51.428Z,100066.72
2023-09-21T05:53:54.246Z,100059.25
2023-09-21T05:56:57.224Z,100068.22
2023-09-21T05:59:59.849Z,100051.03
2023-09-21T06:03:04.601Z,100044.19
2023-09-21T06:06:08.817Z,100056.13
2023-09-21T06:09:13.930Z,100053.97
2023-09-21T06:12:16.587Z,100047.03
2023-09-21T06:15:19.824Z,100055.91
2023-09-21T06:18:24.344Z,100042.13
2023-09-21T06:21:28.477Z,100055.53
2023-09-21T06:24:32.435Z,100056.44
2023-09-21T06:27:37.788Z,100061.19
2023-09-21T06:30:40.417Z,100060.47
2023-09-21T06:33:43.446Z,100058.06
2023-09-21T06:36:48.061Z,100069.13
2023-09-21T06:39:51.130Z,100061.34
2023-09-21T06:42:54.194Z,100063.84
2023-09-21T06:45:56.707Z,100058.56
2023-09-21T06:49:01.355Z,100056.97
2023-09-21T06:52:05.675Z,100054.78
2023-09-21T06:55:08.722Z,100042.56
2023-09-21T06:58:25.487Z,100043.38
2023-09-21T07:01:28.839Z,100044.75
2023-09-21T07:04:35.124Z,100043.72
2023-09-21T07:07:38.285Z,100034.53
2023-09-21T07:19:34.548Z,99999.38
2023-09-21T07:22:38.339Z,100003.50
2023-09-21T07:25:40.841Z,99999.22
2023-09-21T07:28:44.906Z,100008.72
2023-09-21T07:31:47.911Z,100005.56
2023-09-21T07:34:51.349Z,100006.94
2023-09-21T07:37:54.021Z,100007.22
2023-09-21T07:40:58.461Z,99999.91
2023-09-21T07:44:01.699Z,100015.34
2023-09-21T07:47:05.544Z,100014.00
2023-09-21T07:50:09.481Z,100030.53
2023-09-21T07:53:12.100Z,100023.00
2023-09-21T07:56:15.361Z,100022.47
2023-09-21T07:59:18.135Z,100009.75
2023-09-21T08:02:21.323Z,100013.00
2023-09-21T08:05:23.991Z,100004.59
2023-09-21T08:08:27.156Z,100010.28
2023-09-21T08:11:30.690Z,100013.53
2023-09-21T08:14:35.947Z,100019.75
2023-09-21T08:17:39.445Z,100017.53
2023-09-21T08:20:42.157Z,100022.41
2023-09-21T08:23:47.505Z,100022.66
2023-09-21T08:26:51.439Z,100031.56
2023-09-21T08:29:59.214Z,100030.94
2023-09-21T08:33:03.106Z,100022.31
2023-09-21T08:36:06.680Z,100040.56
2023-09-21T08:39:09.780Z,100058.03
2023-09-21T08:42:12.670Z,100050.97
2023-09-21T08:45:20.635Z,100060.47
2023-09-21T08:48:24.921Z,100046.91
2023-09-21T08:51:31.694Z,100023.31
2023-09-21T08:54:41.392Z,100044.47
2023-09-21T08:57:44.308Z,100058.75
2023-09-21T09:00:48.709Z,100080.97
2023-09-21T09:03:53.178Z,100074.69
2023-09-21T09:06:56.228Z,100073.34
2023-09-21T09:09:59.150Z,100069.00
2023-09-21T09:13:11.892Z,100061.44
2023-09-21T09:16:28.469Z,100054.47
2023-09-21T09:19:34.420Z,100051.22
2023-09-21T09:22:37.556Z,100031.97
2023-09-21T09:25:41.882Z,100033.34
2023-09-21T09:28:45.315Z,100019.50
2023-09-21T09:31:49.560Z,100015.41
2023-09-21T09:34:53.924Z,100017.56
2023-09-21T09:37:58.841Z,100020.78
2023-09-21T09:41:05.496Z,100006.03
2023-09-21T09:44:10.235Z,100012.44
2023-09-21T09:47:17.454Z,100011.00
2023-09-21T09:50:27.998Z,100000.91
2023-09-21T09:53:35.635Z,99987.41
2023-09-21T09:56:46.968Z,99974.47
2023-09-21T09:59:50.734Z,99973.00
2023-09-21T10:02:55.145Z,99973.97
2023-09-21T10:05:58.637Z,99972.56
2023-09-21T10:09:03.896Z,99963.03
2023-09-21T10:12:08.518Z,99961.16
2023-09-21T10:15:14.771Z,99965.66
2023-09-21T10:18:51.596Z,99959.84
2023-09-21T10:21:57.679Z,99973.88
2023-09-21T10:25:00.941Z,99966.84
2023-09-21T10:28:32.876Z,99961.84
2023-09-21T10:31:39.503Z,99966.66
2023-09-21T10:34:49.810Z,99956.41
2023-09-21T10:37:52.905Z,99956.00
2023-09-21T10:40:56.077Z,99945.75
2023-09-21T10:44:01.334Z,99936.31
2023-09-21T10:47:04.221Z,99929.97
2023-09-21T10:50:15.721Z,99928.25
2023-09-21T10:53:20.702Z,99928.19
2023-09-21T10:56:24.691Z,99927.56
2023-09-21T10:59:30.746Z,99919.34
2023-09-21T11:02:35.151Z,99911.31
2023-09-21T11:05:39.527Z,99899.66
2023-09-21T11:08:48.084Z,99906.97
2023-09-21T11:11:51.965Z,99899.47
2023-09-21T11:14:54.934Z,99894.78
2023-09-21T11:17:59.357Z,99885.59
2023-09-21T11:21:04.746Z,99878.81
2023-09-21T11:24:07.772Z,99863.88
2023-09-21T11:27:11.595Z,99860.59
2023-09-21T11:30:16.634Z,99857.19
2023-09-21T11:33:25.140Z,99864.41
2023-09-21T11:36:29.172Z,99857.34
2023-09-21T11:39:32.380Z,99858.16
2023-09-21T11:42:35.381Z,99851.34
2023-09-21T11:45:38.058Z,99843.22
2023-09-21T11:48:41.795Z,99837.88
2023-09-21T11:51:45.643Z,99833.84
2023-09-21T11:54:49.687Z,99829.16
2023-09-21T11:57:53.381Z,99820.16
2023-09-21T12:01:16.186Z,99823.34
2023-09-21T12:04:19.321Z,99807.06
2023-09-21T12:07:22.243Z,99790.94
2023-09-21T12:10:25.757Z,99779.50
2023-09-21T12:13:28.497Z,99775.25
2023-09-21T12:16:32.033Z,99775.09
2023-09-21T12:19:35.369Z,99777.78
2023-09-21T12:22:39.676Z,99775.09
2023-09-21T12:25:44.232Z,99772.25
2023-09-21T12:28:50.583Z,99763.22
2023-09-21T12:31:59.895Z,99756.22
2023-09-21T12:35:07.934Z,99757.53
2023-09-21T12:38:12.293Z,99766.19
2023-09-21T12:41:15.328Z,99758.19
2023-09-21T12:44:18.691Z,99753.72
2023-09-21T12:47:21.539Z,99744.63
2023-09-21T12:50:26.093Z,99740.72
2023-09-21T12:53:30.278Z,99736.59
2023-09-21T12:56:33.774Z,99733.53
2023-09-21T12:59:36.566Z,99725.78
2023-09-21T13:02:39.789Z,99727.66
2023-09-21T13:05:46.230Z,99720.16
2023-09-21T13:08:49.403Z,99725.13
2023-09-21T13:11:52.882Z,99715.81
2023-09-21T13:14:55.678Z,99705.22
2023-09-21T13:17:58.769Z,99697.44
2023-09-21T13:21:03.003Z,99696.66
2023-09-21T13:24:06.186Z,99693.91
2023-09-21T13:27:09.564Z,99682.44
2023-09-21T13:30:14.216Z,99685.13
2023-09-21T13:33:17.170Z,99674.84
2023-09-21T13:36:20.089Z,99669.25
2023-09-21T13:39:23.682Z,99681.44
2023-09-21T13:42:28.253Z,99671.88
2023-09-21T13:45:33.797Z,99668.16
2023-09-21T13:48:39.071Z,99681.84
2023-09-21T13:51:44.332Z,99671.88
2023-09-21T13:54:56.312Z,99655.78
2023-09-21T13:58:06.036Z,99647.09
2023-09-21T14:01:09.546Z,99646.66
2023-09-21T14:04:12.894Z,99649.91
2023-09-21T14:07:16.167Z,99651.50
2023-09-21T14:10:19.174Z,99650.97
2023-09-21T14:13:22.080Z,99645.69
2023-09-21T14:16:26.701Z,99646.78
2023-09-21T14:19:33.896Z,99637.72
2023-09-21T14:22:39.392Z,99636.28
2023-09-21T14:25:42.337Z,99631.31
2023-09-21T14:28:45.222Z,99624.81
2023-09-21T14:31:49.526Z,99619.22
2023-09-21T14:34:53.837Z,99622.66
2023-09-21T14:37:56.598Z,99620.34
2023-09-21T14:40:59.369Z,99604.31
2023-09-21T14:44:02.214Z,99615.50
2023-09-21T14:47:06.428Z,99610.03
2023-09-21T14:50:10.820Z,99606.94
2023-09-21T14:53:13.690Z,99603.00
2023-09-21T14:56:16.437Z,99599.34
2023-09-21T14:59:19.704Z,99594.91
2023-09-21T15:02:22.640Z,99585.72
2023-09-21T15:05:25.110Z,99584.75
2023-09-21T15:08:28.007Z,99583.34
2023-09-21T15:11:30.818Z,99577.16
2023-09-21T15:14:34.171Z,99573.66
2023-09-21T15:17:36.613Z,99571.56
2023-09-21T15:20:41.256Z,99564.28
2023-09-21T15:23:47.882Z,99557.63
2023-09-21T15:26:51.807Z,99547.16
2023-09-21T15:29:54.642Z,99545.53
2023-09-21T15:32:57.592Z,99527.09
2023-09-21T15:36:00.976Z,99536.22
2023-09-21T15:39:05.072Z,99527.84
2023-09-21T15:42:07.921Z,99527.06
2023-09-21T15:45:11.894Z,99518.03
2023-09-21T15:48:15.731Z,99520.50
2023-09-21T15:51:18.827Z,99516.22
2023-09-21T15:54:21.882Z,99515.34
2023-09-21T15:57:24.445Z,99516.47
2023-09-21T16:00:27.420Z,99519.09
2023-09-21T16:03:30.432Z,99510.63
2023-09-21T16:06:33.933Z,99519.06
2023-09-21T16:09:36.451Z,99514.28
2023-09-21T16:12:39.294Z,99521.34
2023-09-21T16:15:42.409Z,99520.28
2023-09-21T16:18:45.525Z,99524.34
2023-09-21T16:21:48.578Z,99519.50
2023-09-21T16:24:55.332Z,99514.03
2023-09-21T16:27:59.103Z,99516.06
2023-09-21T16:31:01.949Z,99508.63
2023-09-21T16:34:05.127Z,99521.56
2023-09-21T16:37:08.130Z,99513.78
2023-09-21T16:40:12.573Z,99514.69
2023-09-21T16:43:15.268Z,99508.06
2023-09-21T16:46:39.593Z,99511.09
2023-09-21T16:49:41.254Z,99500.06
2023-09-21T16:52:44.570Z,99509.91
2023-09-21T16:55:47.403Z,99506.94
2023-09-21T16:58:50.741Z,99501.53
2023-09-21T17:01:53.599Z,99501.47
2023-09-21T17:04:56.572Z,99503.53
2023-09-21T17:07:59.552Z,99501.53
2023-09-21T17:11:02.341Z,99500.38
2023-09-21T17:14:05.089Z,99498.25
2023-09-21T17:17:08.769Z,99496.94
2023-09-21T17:20:13.224Z,99495.63
2023-09-21T17:23:15.682Z,99484.81
2023-09-21T17:26:18.420Z,99486.03
2023-09-21T17:29:21.139Z,99483.19
2023-09-21T17:32:25.292Z,99486.09
2023-09-21T17:35:27.914Z,99493.00
2023-09-21T17:38:31.243Z,99485.63
2023-09-21T17:41:34.096Z,99483.75
2023-09-21T17:44:36.780Z,99488.50
2023-09-21T17:47:39.787Z,99487.72
2023-09-21T17:50:44.791Z,99485.88
2023-09-21T17:53:50.288Z,99495.28
2023-09-21T17:56:53.506Z,99493.94
2023-09-21T17:59:56.239Z,99494.75
2023-09-21T18:03:00.829Z,99491.22
2023-09-21T18:06:03.524Z,99490.91
2023-09-21T18:09:09.474Z,99501.69
2023-09-21T18:12:12.564Z,99501.88
2023-09-21T18:15:15.437Z,99500.19
2023-09-21T18:18:18.080Z,99512.78
2023-09-21T18:21:21.126Z,99513.81
2023-09-21T18:24:23.949Z,99543.38
2023-09-21T18:27:27.123Z,99554.59
2023-09-21T18:30:30.216Z,99557.47
2023-09-21T18:33:36.914Z,99538.16
2023-09-21T18:36:43.221Z,99536.47
2023-09-21T18:39:46.288Z,99551.53
2023-09-21T18:42:49.266Z,99541.56
2023-09-21T18:45:52.220Z,99535.22
2023-09-21T18:48:55.217Z,99531.25
2023-09-21T18:51:59.000Z,99539.03
2023-09-21T18:55:01.736Z,99531.63
2023-09-21T18:58:04.810Z,99535.06
2023-09-21T19:01:12.988Z,99541.44
2023-09-21T19:04:15.773Z,99537.06
2023-09-21T19:07:19.375Z,99534.97
2023-09-21T19:10:22.273Z,99535.38
2023-09-21T19:13:25.118Z,99537.53
2023-09-21T19:16:27.928Z,99536.44
2023-09-21T19:19:31.122Z,99537.53
2023-09-21T19:22:33.960Z,99534.19
2023-09-21T19:25:38.060Z,99536.56
2023-09-21T19:28:40.896Z,99528.06
2023-09-21T19:31:43.659Z,99535.44
2023-09-21T19:34:46.428Z,99523.44
2023-09-21T19:37:49.571Z,99531.13
2023-09-21T19:40:55.618Z,99529.94
2023-09-21T19:43:59.670Z,99515.56
2023-09-21T19:47:03.569Z,99523.56
2023-09-21T19:50:06.857Z,99522.06
2023-09-21T19:53:11.841Z,99524.69
2023-09-21T19:56:14.882Z,99519.19
2023-09-21T19:59:20.984Z,99536.31
2023-09-21T20:02:23.882Z,99531.00
2023-09-21T20:05:26.468Z,99537.00
2023-09-21T20:08:29.232Z,99535.50
2023-09-21T20:11:31.995Z,99536.69
2023-09-21T20:14:34.730Z,99538.41
2023-09-21T20:17:37.560Z,99547.38
2023-09-21T20:20:40.161Z,99556.88
2023-09-21T20:23:42.904Z,99564.72
2023-09-21T20:26:45.858Z,99557.88
2023-09-21T20:29:49.730Z,99557.09
2023-09-21T20:32:52.278Z,99564.81
2023-09-21T20:35:58.163Z,99565.28
2023-09-21T20:39:00.666Z,99563.84
2023-09-21T20:42:03.373Z,99561.22
2023-09-21T20:45:06.989Z,99555.44
2023-09-21T20:48:09.879Z,99550.59
2023-09-21T20:51:12.487Z,99548.97
2023-09-21T20:54:15.361Z,99544.63
2023-09-21T20:57:19.969Z,99539.34
2023-09-21T21:00:24.138Z,99546.41
2023-09-21T21:03:27.600Z,99539.56
2023-09-21T21:06:30.633Z,99527.53
2023-09-21T21:09:33.544Z,99530.53
2023-09-21T21:12:36.308Z,99529.66
2023-09-21T21:15:39.014Z,99522.66
2023-09-21T21:18:41.865Z,99515.16
2023-09-21T21:21:44.438Z,99513.41
2023-09-21T21:24:47.380Z,99511.50
2023-09-21T21:27:50.344Z,99518.91
2023-09-21T21:30:53.553Z,99517.59
2023-09-21T21:33:56.917Z,99515.53
2023-09-21T21:36:59.658Z,99515.66
2023-09-21T21:40:02.662Z,99520.38
2023-09-21T21:43:05.904Z,99520.41
2023-09-21T21:46:11.179Z,99521.13
2023-09-21T21:49:14.009Z,99522.00
2023-09-21T21:52:16.710Z,99519.41
2023-09-21T21:55:22.428Z,99519.31
2023-09-21T21:58:25.203Z,99512.25
2023-09-21T22:01:43.666Z,99528.09
2023-09-21T22:04:47.731Z,99523.81
2023-09-21T22:07:51.159Z,99521.19
2023-09-21T22:10:54.206Z,99523.22
2023-09-21T22:13:57.598Z,99520.63
2023-09-21T22:17:00.559Z,99525.25
2023-09-21T22:20:16.018Z,99519.19
2023-09-21T22:23:18.517Z,99515.28
2023-09-21T22:26:21.158Z,99515.63
2023-09-21T22:29:24.087Z,99515.72
2023-09-21T22:32:26.662Z,99509.59
2023-09-21T22:35:29.212Z,99518.28
2023-09-21T22:38:33.411Z,99511.00
2023-09-21T22:41:36.602Z,99510.69
2023-09-21T22:44:40.322Z,99510.69
2023-09-21T22:47:43.947Z,99513.44
2023-09-21T22:50:47.203Z,99515.41
2023-09-21T22:53:51.023Z,99514.38
2023-09-21T22:56:54.682Z,99504.94
2023-09-21T22:59:57.377Z,99507.94
2023-09-21T23:03:00.309Z,99504.69
2023-09-21T23:06:12.549Z,99504.69
2023-09-21T23:09:17.430Z,99521.19
2023-09-21T23:12:21.572Z,99514.94
2023-09-21T23:15:24.762Z,99518.38
2023-09-21T23:18:27.823Z,99519.44
2023-09-21T23:21:30.727Z,99517.81
2023-09-21T23:24:34.469Z,99521.56
2023-09-21T23:27:40.669Z,99525.09
2023-09-21T23:30:43.999Z,99531.06
2023-09-21T23:33:47.083Z,99530.78
2023-09-21T23:36:50.782Z,99534.06
2023-09-21T23:39:55.026Z,99534.06
2023-09-21T23:42:57.935Z,99533.00
2023-09-21T23:46:01.749Z,99532.75
2023-09-21T23:49:05.277Z,99528.41
2023-09-21T23:52:07.974Z,99529.78
2023-09-21T23:55:11.727Z,99529.81
2023-09-21T23:58:15.866Z,99527.66
